Time;durP1;ratioP1;P1;durP2;ratioP2;P2;SDS_P1;SDS_P2;PMS_P1;PMS_P2;Temp;Humidity;BMP_temperature;BMP_pressure;BME280_temperature;BME280_humidity;BME280_pressure;Samples;Min_cycle;Max_cycle;Signal;HPM_P1;HPM_P2
2022/02/16 00:00:00;;;;;;;60.63;25.17;;;4.10;66.60;;;;;;5117488;28;20349;-44
2022/02/16 00:02:26;;;;;;;37.40;18.33;;;4.10;66.60;;;;;;5117459;28;20039;-45
2022/02/16 00:04:52;;;;;;;40.75;20.83;;;4.00;66.70;;;;;;5117403;28;20486;-45
2022/02/16 00:07:17;;;;;;;47.00;21.95;;;4.00;66.80;;;;;;5117331;28;20024;-44
2022/02/16 00:09:43;;;;;;;66.80;28.02;;;4.00;67.00;;;;;;5117197;28;20024;-47
2022/02/16 00:12:09;;;;;;;47.60;21.33;;;3.90;67.20;;;;;;5116968;28;20032;-37
2022/02/16 00:14:34;;;;;;;56.83;25.80;;;3.90;67.40;;;;;;5116934;28;20189;-37
2022/02/16 00:17:00;;;;;;;66.68;28.15;;;3.90;67.50;;;;;;5116856;28;20400;-44
2022/02/16 00:19:26;;;;;;;84.65;35.75;;;3.90;67.60;;;;;;5117333;28;20028;-37
2022/02/16 00:21:52;;;;;;;76.60;33.20;;;3.90;67.60;;;;;;5116864;28;20023;-37
2022/02/16 00:24:18;;;;;;;55.47;24.17;;;3.90;67.70;;;;;;5117276;28;20028;-47
2022/02/16 00:26:44;;;;;;;34.95;17.08;;;3.90;67.70;;;;;;5116767;28;20027;-37
2022/02/16 00:29:13;;;;;;;29.23;14.77;;;3.90;67.70;;;;;;5116817;28;20019;-37
2022/02/16 00:31:40;;;;;;;30.27;14.10;;;3.90;67.70;;;;;;5116701;28;20030;-37
2022/02/16 00:34:06;;;;;;;27.27;13.65;;;3.90;67.70;;;;;;5116106;28;20030;-45
2022/02/16 00:36:32;;;;;;;33.20;13.10;;;3.80;67.60;;;;;;5117173;28;20020;-37
2022/02/16 00:38:58;;;;;;;22.02;12.93;;;3.80;67.70;;;;;;5116881;28;20114;-47
2022/02/16 00:41:24;;;;;;;22.50;12.60;;;3.80;67.70;;;;;;5117153;28;20082;-45
2022/02/16 00:43:50;;;;;;;19.80;11.57;;;3.70;67.80;;;;;;5116371;28;20024;-38
2022/02/16 00:46:16;;;;;;;30.48;13.18;;;3.70;67.90;;;;;;5117206;28;20075;-37
2022/02/16 00:48:42;;;;;;;32.75;14.82;;;3.60;68.00;;;;;;5116629;28;20110;-38
2022/02/16 00:51:07;;;;;;;24.10;12.82;;;3.60;68.20;;;;;;5117077;28;20119;-45
2022/02/16 00:53:33;;;;;;;32.75;13.35;;;3.60;68.40;;;;;;5116255;28;20098;-41
2022/02/16 00:55:59;;;;;;;52.42;20.40;;;3.50;68.50;;;;;;5116902;28;20070;-46
2022/02/16 00:58:25;;;;;;;29.25;13.90;;;3.60;68.70;;;;;;5116377;28;20070;-46
2022/02/16 01:00:50;;;;;;;38.78;16.90;;;3.50;68.70;;;;;;5116915;28;20480;-44
2022/02/16 01:03:16;;;;;;;27.58;12.63;;;3.50;68.80;;;;;;5116223;28;20027;-37
2022/02/16 01:05:42;;;;;;;37.35;15.13;;;3.60;68.90;;;;;;5116758;28;20031;-37
2022/02/16 01:08:11;;;;;;;49.95;19.58;;;3.60;69.00;;;;;;5116456;28;20415;-46
2022/02/16 01:10:39;;;;;;;72.70;24.75;;;3.60;69.00;;;;;;5116719;28;20032;-46
2022/02/16 01:13:04;;;;;;;104.10;36.38;;;3.70;69.20;;;;;;5116187;28;20073;-37
2022/02/16 01:15:30;;;;;;;89.10;29.90;;;3.70;69.20;;;;;;5116579;28;20028;-45
2022/02/16 01:17:56;;;;;;;85.20;27.80;;;3.70;69.20;;;;;;5116026;28;20023;-37
2022/02/16 01:20:22;;;;;;;94.85;31.13;;;3.80;69.20;;;;;;5116702;28;20036;-45
2022/02/16 01:22:48;;;;;;;40.53;17.67;;;3.80;69.20;;;;;;5116336;28;20501;-37
2022/02/16 01:25:14;;;;;;;63.78;23.15;;;3.90;69.20;;;;;;5116679;28;20032;-44
2022/02/16 01:27:40;;;;;;;197.40;62.65;;;3.90;69.20;;;;;;5115934;28;20029;-37
2022/02/16 01:30:07;;;;;;;51.40;19.80;;;4.00;69.20;;;;;;5116582;28;20032;-37
2022/02/16 01:32:32;;;;;;;81.93;30.95;;;4.00;69.20;;;;;;5115952;28;20032;-45
2022/02/16 01:34:58;;;;;;;40.05;18.77;;;4.00;69.20;;;;;;5116381;28;20089;-41
2022/02/16 01:37:24;;;;;;;204.70;68.63;;;4.10;69.20;;;;;;5116126;28;20050;-37
2022/02/16 01:39:49;;;;;;;79.68;29.88;;;4.10;69.70;;;;;;5116097;28;20035;-36
2022/02/16 01:42:17;;;;;;;111.72;35.97;;;4.20;69.20;;;;;;5115786;28;20020;-46
2022/02/16 01:44:42;;;;;;;82.82;29.85;;;4.20;69.10;;;;;;5116015;28;20076;-47
2022/02/16 01:47:08;;;;;;;109.55;34.30;;;4.30;69.10;;;;;;5119288;28;20032;-44
2022/02/16 01:49:35;;;;;;;203.00;60.15;;;4.30;69.10;;;;;;5120351;28;20042;-37
2022/02/16 01:52:01;;;;;;;100.63;34.25;;;4.30;69.10;;;;;;5119654;28;20044;-46
2022/02/16 01:54:27;;;;;;;252.55;67.97;;;4.40;69.20;;;;;;5119770;28;20411;-37
2022/02/16 01:56:53;;;;;;;92.28;31.08;;;4.40;69.10;;;;;;5119838;28;20092;-45
2022/02/16 01:59:22;;;;;;;156.10;45.47;;;4.40;69.10;;;;;;5119798;28;20027;-47
2022/02/16 02:01:48;;;;;;;119.95;38.28;;;4.50;69.00;;;;;;5119558;28;20027;-37
2022/02/16 02:04:15;;;;;;;65.88;25.75;;;4.50;68.90;;;;;;5119852;28;20146;-48
2022/02/16 02:06:41;;;;;;;86.07;28.63;;;4.50;68.90;;;;;;5119311;28;20156;-47
2022/02/16 02:09:06;;;;;;;42.65;20.02;;;4.60;69.00;;;;;;5119413;27;20110;-37
2022/02/16 02:11:32;;;;;;;78.95;28.48;;;4.60;69.00;;;;;;5119698;27;20020;-37
2022/02/16 02:14:04;;;;;;;226.38;64.57;;;4.60;68.90;;;;;;5118946;28;20043;-37
2022/02/16 02:16:30;;;;;;;179.55;54.17;;;4.70;69.10;;;;;;5119528;28;20032;-37
2022/02/16 02:18:56;;;;;;;124.97;40.80;;;4.70;69.10;;;;;;5119602;28;20046;-37
2022/02/16 02:21:22;;;;;;;301.58;90.15;;;4.70;69.20;;;;;;5119791;28;20438;-38
2022/02/16 02:23:49;;;;;;;235.27;75.50;;;4.80;69.20;;;;;;5119382;28;20036;-46
2022/02/16 02:26:16;;;;;;;75.65;28.23;;;4.80;69.20;;;;;;5119722;28;20085;-37
2022/02/16 02:28:42;;;;;;;216.23;65.20;;;4.80;69.20;;;;;;5117766;28;20115;-46
2022/02/16 02:31:08;;;;;;;157.98;50.78;;;4.80;69.10;;;;;;5119242;28;20611;-37
2022/02/16 02:33:34;;;;;;;115.03;38.97;;;4.90;69.20;;;;;;5118673;28;20035;-37
2022/02/16 02:36:00;;;;;;;115.80;38.45;;;4.90;69.10;;;;;;5119470;28;20308;-45
2022/02/16 02:38:26;;;;;;;83.00;29.92;;;5.00;69.00;;;;;;5119062;28;20039;-37
2022/02/16 02:41:01;;;;;;;172.35;53.45;;;5.00;69.00;;;;;;5118018;28;20035;-45
2022/02/16 02:43:27;;;;;;;77.90;29.40;;;5.00;69.00;;;;;;5119029;28;20031;-37
2022/02/16 02:45:53;;;;;;;49.08;22.55;;;5.00;68.90;;;;;;5119298;28;20324;-44
2022/02/16 02:48:20;;;;;;;45.53;20.45;;;5.00;68.90;;;;;;5118403;28;20039;-45
2022/02/16 02:50:46;;;;;;;54.30;23.02;;;5.10;68.80;;;;;;5119226;28;20062;-45
2022/02/16 02:53:11;;;;;;;70.72;29.88;;;5.10;68.80;;;;;;5118496;28;20070;-38
2022/02/16 02:55:37;;;;;;;89.03;35.38;;;5.10;68.80;;;;;;5118816;28;20027;-46
2022/02/16 02:58:03;;;;;;;47.67;22.33;;;5.10;68.80;;;;;;5118283;28;20156;-45
2022/02/16 03:00:28;;;;;;;130.18;51.78;;;5.10;68.90;;;;;;5118891;28;20055;-47
2022/02/16 03:02:54;;;;;;;80.82;33.80;;;5.10;69.00;;;;;;5118596;28;20039;-42
2022/02/16 03:05:20;;;;;;;122.28;50.22;;;5.10;69.00;;;;;;5118892;28;20114;-42
2022/02/16 03:07:46;;;;;;;91.20;39.53;;;5.10;69.10;;;;;;5118214;28;20035;-46
2022/02/16 03:10:12;;;;;;;47.25;21.67;;;5.10;69.20;;;;;;5118627;28;20035;-45
2022/02/16 03:12:38;;;;;;;63.50;29.58;;;5.10;69.20;;;;;;5118252;28;20078;-47
2022/02/16 03:15:05;;;;;;;43.13;20.63;;;5.20;69.20;;;;;;5118363;28;20097;-48
2022/02/16 03:17:31;;;;;;;79.57;34.08;;;5.20;69.20;;;;;;5118014;28;20407;-37
2022/02/16 03:19:56;;;;;;;109.05;46.72;;;5.20;69.20;;;;;;5118360;28;20039;-39
2022/02/16 03:22:22;;;;;;;216.10;77.05;;;5.20;69.30;;;;;;5118015;28;20028;-46
2022/02/16 03:24:48;;;;;;;290.65;91.03;;;5.20;69.20;;;;;;5118402;28;20056;-44
2022/02/16 03:27:14;;;;;;;109.18;37.90;;;5.20;69.30;;;;;;5117883;28;20153;-49
2022/02/16 03:29:39;;;;;;;115.53;39.85;;;5.30;69.30;;;;;;5118131;28;20039;-37
2022/02/16 03:32:05;;;;;;;96.00;31.75;;;5.30;69.40;;;;;;5117971;28;20464;-39
2022/02/16 03:34:31;;;;;;;172.85;56.38;;;5.30;69.50;;;;;;5118124;28;20035;-37
2022/02/16 03:36:57;;;;;;;284.73;93.57;;;5.30;69.60;;;;;;5117630;28;20023;-42
2022/02/16 03:39:23;;;;;;;74.45;29.58;;;5.30;69.70;;;;;;5117812;28;20043;-46
2022/02/16 03:41:49;;;;;;;52.20;21.88;;;5.30;69.70;;;;;;5117875;28;20039;-46
2022/02/16 03:44:15;;;;;;;59.90;25.83;;;5.30;69.60;;;;;;5117807;28;20042;-44
2022/02/16 03:46:41;;;;;;;74.72;31.20;;;5.40;69.70;;;;;;5117799;28;20103;-46
2022/02/16 03:49:06;;;;;;;62.90;27.50;;;5.40;69.80;;;;;;5117796;28;20035;-44
2022/02/16 03:51:33;;;;;;;114.07;35.22;;;5.40;69.80;;;;;;5117558;28;20019;-38
2022/02/16 03:53:59;;;;;;;414.25;121.50;;;5.40;69.90;;;;;;5117061;28;20032;-45
2022/02/16 03:56:25;;;;;;;183.48;50.15;;;5.40;69.90;;;;;;5118203;28;20027;-47
2022/02/16 03:58:50;;;;;;;101.45;35.47;;;5.40;69.90;;;;;;5117158;28;20042;-46
2022/02/16 04:01:16;;;;;;;72.57;27.35;;;5.40;69.90;;;;;;5117920;28;20082;-37
2022/02/16 04:03:42;;;;;;;64.38;26.02;;;5.40;70.00;;;;;;5117422;28;20052;-46
2022/02/16 04:06:08;;;;;;;55.70;22.15;;;5.40;70.00;;;;;;5117652;28;20075;-45
2022/02/16 04:08:34;;;;;;;95.75;36.58;;;5.40;70.10;;;;;;5116260;28;20400;-37
2022/02/16 04:11:00;;;;;;;80.43;31.83;;;5.40;70.20;;;;;;5117724;28;20073;-49
2022/02/16 04:13:25;;;;;;;58.85;25.02;;;5.40;70.30;;;;;;5116954;28;20120;-37
2022/02/16 04:15:51;;;;;;;53.22;23.23;;;5.40;70.40;;;;;;5117584;28;20031;-37
2022/02/16 04:18:17;;;;;;;82.38;34.88;;;5.40;70.50;;;;;;5117081;28;20055;-45
2022/02/16 04:20:42;;;;;;;142.85;52.53;;;5.40;70.60;;;;;;5117231;28;20320;-38
2022/02/16 04:23:12;;;;;;;86.65;31.77;;;5.40;70.70;;;;;;5116726;28;20027;-38
2022/02/16 04:25:38;;;;;;;227.93;65.25;;;5.40;70.70;;;;;;5117349;28;20035;-38
2022/02/16 04:28:04;;;;;;;197.85;55.78;;;5.40;70.60;;;;;;5116896;28;20319;-37
2022/02/16 04:30:34;;;;;;;430.70;122.45;;;5.50;70.60;;;;;;5117091;28;20028;-40
2022/02/16 04:32:59;;;;;;;191.13;57.33;;;5.50;70.60;;;;;;5116670;28;20020;-44
2022/02/16 04:35:25;;;;;;;87.35;31.05;;;5.50;70.70;;;;;;5116891;28;20039;-44
2022/02/16 04:37:51;;;;;;;123.53;38.95;;;5.50;70.80;;;;;;5116501;28;20068;-37
2022/02/16 04:40:17;;;;;;;130.45;41.97;;;5.50;70.80;;;;;;5116938;28;20400;-49
2022/02/16 04:42:43;;;;;;;71.53;29.92;;;5.50;70.90;;;;;;5116274;28;20051;-44
2022/02/16 04:45:09;;;;;;;49.08;22.38;;;5.50;71.00;;;;;;5116987;28;20088;-36
2022/02/16 04:47:35;;;;;;;45.85;22.02;;;5.50;71.00;;;;;;5116483;28;20023;-38
2022/02/16 04:50:03;;;;;;;79.22;35.88;;;5.50;70.90;;;;;;5116761;28;20035;-44
2022/02/16 04:52:34;;;;;;;68.82;30.20;;;5.50;70.90;;;;;;5116570;28;20031;-36
2022/02/16 04:55:10;;;;;;;59.53;24.92;;;5.50;71.00;;;;;;5116426;28;20380;-39
2022/02/16 04:57:37;;;;;;;277.30;96.75;;;5.50;71.10;;;;;;5115870;28;20026;-36
2022/02/16 05:00:07;;;;;;;73.03;30.30;;;5.60;71.30;;;;;;5115970;28;20036;-47
2022/02/16 05:02:33;;;;;;;53.70;26.15;;;5.60;71.40;;;;;;5116164;28;20457;-37
2022/02/16 05:04:59;;;;;;;95.05;36.63;;;5.60;71.50;;;;;;5116456;28;20039;-42
2022/02/16 05:07:24;;;;;;;47.20;25.05;;;5.60;71.70;;;;;;5116350;28;20027;-38
2022/02/16 05:09:50;;;;;;;46.33;23.65;;;5.60;71.70;;;;;;5116557;28;20068;-36
2022/02/16 05:12:16;;;;;;;47.05;23.80;;;5.60;71.70;;;;;;5116107;28;20423;-38
2022/02/16 05:14:42;;;;;;;53.17;25.60;;;5.60;71.70;;;;;;5116104;28;20446;-45
2022/02/16 05:17:09;;;;;;;41.33;21.63;;;5.70;71.80;;;;;;5115812;28;20023;-44
2022/02/16 05:19:34;;;;;;;48.97;23.40;;;5.70;71.80;;;;;;5117207;28;20046;-36
2022/02/16 05:22:00;;;;;;;48.65;23.65;;;5.70;71.80;;;;;;5120136;28;20466;-47
2022/02/16 05:24:26;;;;;;;66.38;30.20;;;5.70;71.90;;;;;;5120488;28;20084;-36
2022/02/16 05:26:52;;;;;;;36.47;17.30;;;5.70;71.90;;;;;;5120088;28;20036;-36
2022/02/16 05:29:19;;;;;;;30.92;16.77;;;5.70;72.00;;;;;;5119996;28;20036;-44
2022/02/16 05:31:44;;;;;;;31.90;17.52;;;5.70;72.00;;;;;;5119752;28;20412;-37
2022/02/16 05:34:10;;;;;;;39.97;18.58;;;5.70;72.20;;;;;;5119997;28;20031;-37
2022/02/16 05:36:37;;;;;;;39.10;19.70;;;5.70;72.20;;;;;;5119813;28;20034;-45
2022/02/16 05:39:04;;;;;;;38.60;20.33;;;5.70;72.40;;;;;;5119742;28;20114;-44
2022/02/16 05:41:30;;;;;;;34.28;17.83;;;5.70;72.50;;;;;;5119454;28;20035;-37
2022/02/16 05:43:56;;;;;;;29.27;15.77;;;5.70;72.60;;;;;;5119571;28;20059;-45
2022/02/16 05:46:23;;;;;;;29.52;16.85;;;5.70;72.60;;;;;;5120192;28;20126;-37
2022/02/16 05:48:49;;;;;;;32.45;18.30;;;5.70;72.80;;;;;;5119679;27;20050;-37
2022/02/16 05:51:15;;;;;;;28.20;15.35;;;5.60;72.90;;;;;;5120222;28;20099;-44
2022/02/16 05:53:40;;;;;;;31.92;13.10;;;5.60;73.00;;;;;;5119425;28;20035;-36
2022/02/16 05:56:06;;;;;;;52.00;26.17;;;5.60;73.20;;;;;;5120155;28;20350;-47
2022/02/16 05:58:32;;;;;;;55.85;24.65;;;5.50;73.30;;;;;;5119740;28;20105;-45
2022/02/16 06:00:59;;;;;;;30.55;16.63;;;5.50;73.50;;;;;;5119826;28;20039;-36
2022/02/16 06:03:25;;;;;;;42.08;17.75;;;5.50;73.60;;;;;;5119555;28;20035;-37
2022/02/16 06:05:51;;;;;;;34.63;20.35;;;5.50;73.80;;;;;;5119667;28;20035;-46
2022/02/16 06:08:17;;;;;;;37.20;18.08;;;5.50;74.00;;;;;;5118511;28;20301;-36
2022/02/16 06:10:42;;;;;;;39.72;18.35;;;5.50;74.20;;;;;;5119319;28;20419;-44
2022/02/16 06:13:08;;;;;;;29.75;17.95;;;5.50;74.20;;;;;;5117715;28;20444;-47
2022/02/16 06:15:34;;;;;;;33.88;18.52;;;5.50;74.40;;;;;;5119364;28;20492;-36
2022/02/16 06:17:59;;;;;;;28.63;15.40;;;5.50;74.50;;;;;;5118861;28;20076;-45
2022/02/16 06:20:25;;;;;;;37.08;17.73;;;5.50;74.70;;;;;;5119242;28;20320;-45
2022/02/16 06:22:53;;;;;;;33.17;18.02;;;5.50;75.20;;;;;;5118847;28;20024;-45
2022/02/16 06:25:19;;;;;;;27.73;16.00;;;5.40;75.30;;;;;;5118946;28;20044;-45
2022/02/16 06:27:45;;;;;;;39.75;22.48;;;5.40;75.50;;;;;;5118691;28;20112;-37
2022/02/16 06:30:11;;;;;;;31.17;19.08;;;5.40;75.70;;;;;;5118738;28;20411;-37
2022/02/16 06:32:37;;;;;;;28.02;16.83;;;5.40;75.80;;;;;;5117358;28;20028;-36
2022/02/16 06:35:03;;;;;;;32.83;20.17;;;5.40;76.00;;;;;;5118548;28;20276;-44
2022/02/16 06:37:28;;;;;;;32.22;21.20;;;5.40;76.10;;;;;;5118540;28;20312;-36
2022/02/16 06:39:54;;;;;;;65.55;36.97;;;5.40;76.30;;;;;;5118607;28;20081;-36
2022/02/16 06:42:20;;;;;;;40.85;23.25;;;5.40;76.50;;;;;;5118104;28;20085;-38
2022/02/16 06:44:46;;;;;;;43.08;23.92;;;5.40;76.60;;;;;;5118560;28;20044;-44
2022/02/16 06:47:11;;;;;;;41.33;23.85;;;5.40;76.80;;;;;;5118216;28;20062;-47
2022/02/16 06:49:38;;;;;;;39.90;23.58;;;5.40;76.70;;;;;;5118820;28;20114;-36
2022/02/16 06:52:04;;;;;;;38.67;21.90;;;5.40;77.00;;;;;;5118107;28;20456;-36
2022/02/16 06:54:31;;;;;;;37.45;21.08;;;5.40;77.20;;;;;;5118200;28;20086;-36
2022/02/16 06:56:58;;;;;;;35.22;21.05;;;5.40;77.20;;;;;;5117519;28;20027;-36
2022/02/16 06:59:23;;;;;;;32.30;18.65;;;5.40;77.50;;;;;;5118101;28;20075;-44
2022/02/16 07:01:49;;;;;;;30.75;18.05;;;5.40;77.60;;;;;;5118193;28;20039;-37
2022/02/16 07:04:15;;;;;;;30.42;18.35;;;5.30;78.00;;;;;;5118050;28;20083;-44
2022/02/16 07:06:41;;;;;;;28.45;19.25;;;5.30;78.20;;;;;;5117967;28;20103;-44
2022/02/16 07:09:06;;;;;;;38.60;20.20;;;5.30;78.40;;;;;;5118309;28;20458;-37
2022/02/16 07:11:32;;;;;;;37.30;19.60;;;5.30;78.50;;;;;;5118279;28;20408;-37
2022/02/16 07:13:58;;;;;;;36.90;21.48;;;5.30;78.70;;;;;;5117489;28;20043;-48
2022/02/16 07:16:23;;;;;;;38.03;20.25;;;5.30;78.70;;;;;;5118416;28;20032;-37
2022/02/16 07:18:49;;;;;;;35.45;20.35;;;5.30;79.00;;;;;;5117837;28;20136;-44
2022/02/16 07:21:15;;;;;;;36.38;19.48;;;5.30;79.00;;;;;;5118395;28;20039;-36
2022/02/16 07:23:43;;;;;;;39.25;23.27;;;5.30;79.30;;;;;;5116302;28;20042;-36
2022/02/16 07:26:10;;;;;;;38.85;21.17;;;5.20;79.60;;;;;;5095452;28;20048;-36
2022/02/16 07:28:35;;;;;;;38.20;21.98;;;5.30;79.70;;;;;;5096945;28;20366;-44
2022/02/16 07:31:01;;;;;;;42.13;24.95;;;5.30;79.80;;;;;;5097509;28;20025;-44
2022/02/16 07:33:27;;;;;;;60.00;27.92;;;5.30;79.90;;;;;;5096778;28;20059;-45
2022/02/16 07:35:52;;;;;;;40.72;22.60;;;5.30;80.10;;;;;;5096970;28;20032;-47
2022/02/16 07:38:18;;;;;;;32.78;21.33;;;5.40;80.10;;;;;;5096897;28;20039;-46
2022/02/16 07:40:44;;;;;;;41.90;21.92;;;5.40;80.10;;;;;;5097744;28;20078;-47
2022/02/16 07:43:10;;;;;;;46.63;25.15;;;5.40;79.90;;;;;;5116910;28;20028;-37
2022/02/16 07:45:35;;;;;;;38.45;23.40;;;5.40;80.00;;;;;;5117138;28;20032;-36
2022/02/16 07:48:01;;;;;;;61.72;27.63;;;5.40;80.20;;;;;;5116814;28;20019;-39
2022/02/16 07:50:28;;;;;;;50.72;25.50;;;5.40;80.30;;;;;;5094740;28;20028;-45
2022/02/16 07:52:55;;;;;;;51.25;24.73;;;5.40;80.40;;;;;;5096553;28;20024;-46
2022/02/16 07:55:21;;;;;;;40.55;22.30;;;5.40;80.60;;;;;;5095863;28;20067;-44
2022/02/16 07:57:47;;;;;;;46.53;25.25;;;5.40;80.70;;;;;;5096193;28;20496;-46
2022/02/16 08:00:14;;;;;;;75.82;32.65;;;5.40;80.80;;;;;;5096241;28;20039;-36
2022/02/16 08:02:39;;;;;;;40.95;23.23;;;5.40;81.10;;;;;;5095960;28;20023;-36
2022/02/16 08:05:05;;;;;;;41.05;21.20;;;5.40;81.10;;;;;;5096221;28;20036;-45
2022/02/16 08:07:31;;;;;;;34.95;21.48;;;5.40;81.20;;;;;;5096431;28;20257;-37
2022/02/16 08:09:58;;;;;;;40.25;21.10;;;5.40;81.30;;;;;;5095855;28;20032;-36
2022/02/16 08:12:23;;;;;;;39.38;21.05;;;5.40;81.20;;;;;;5095607;28;20054;-36
2022/02/16 08:14:49;;;;;;;76.95;33.28;;;5.40;81.20;;;;;;5095343;28;20098;-36
2022/02/16 08:17:15;;;;;;;40.63;20.08;;;5.40;81.20;;;;;;5096349;28;20103;-44
2022/02/16 08:19:40;;;;;;;35.88;18.77;;;5.40;81.30;;;;;;5096157;28;20123;-46
2022/02/16 08:22:06;;;;;;;32.63;19.33;;;5.50;81.60;;;;;;5095950;28;20028;-38
2022/02/16 08:24:32;;;;;;;53.90;26.02;;;5.50;81.30;;;;;;5095674;28;20391;-44
2022/02/16 08:26:59;;;;;;;37.33;20.92;;;5.60;81.30;;;;;;5095833;28;20408;-36
2022/02/16 08:29:26;;;;;;;40.05;20.25;;;5.60;81.40;;;;;;5093138;28;20032;-36
2022/02/16 08:31:52;;;;;;;41.00;20.45;;;5.60;81.20;;;;;;5095220;28;20050;-36
2022/02/16 08:34:19;;;;;;;33.58;21.27;;;5.70;81.10;;;;;;5095294;28;20024;-37
2022/02/16 08:36:44;;;;;;;42.72;21.23;;;5.70;81.00;;;;;;5095800;28;20012;-44
2022/02/16 08:39:10;;;;;;;37.33;20.35;;;5.70;81.10;;;;;;5095503;28;20024;-37
2022/02/16 08:41:37;;;;;;;37.67;20.67;;;5.70;81.00;;;;;;5095642;28;20028;-38
2022/02/16 08:44:04;;;;;;;54.45;25.42;;;5.70;81.10;;;;;;5095233;28;20024;-46
2022/02/16 08:46:30;;;;;;;37.78;20.40;;;5.70;81.20;;;;;;5095615;28;20140;-37
2022/02/16 08:49:00;;;;;;;38.15;21.20;;;5.70;81.30;;;;;;5094485;28;20031;-46
2022/02/16 08:51:27;;;;;;;;;;;5.70;81.50;;;;;;5094768;28;20378;-45
2022/02/16 08:53:52;;;;;;;32.20;17.88;;;5.70;81.40;;;;;;5094960;28;19904;-39
2022/02/16 08:56:18;;;;;;;39.53;18.48;;;5.60;81.50;;;;;;5094722;28;20415;-49
2022/02/16 08:58:43;;;;;;;32.10;18.77;;;5.60;81.70;;;;;;5095001;28;20031;-44
2022/02/16 09:01:11;;;;;;;68.63;30.58;;;5.60;82.00;;;;;;5095780;28;20032;-38
2022/02/16 09:03:36;;;;;;;35.83;21.15;;;5.60;82.20;;;;;;5094787;28;20084;-37
2022/02/16 09:06:02;;;;;;;45.65;25.27;;;5.60;82.40;;;;;;5095539;28;20367;-46
2022/02/16 09:08:27;;;;;;;35.45;20.08;;;5.60;82.50;;;;;;5094513;28;20111;-44
2022/02/16 09:10:53;;;;;;;38.30;21.05;;;5.60;82.70;;;;;;5095119;28;20065;-45
2022/02/16 09:13:19;;;;;;;33.15;18.58;;;5.70;82.70;;;;;;5094568;28;20074;-45
2022/02/16 09:15:44;;;;;;;35.67;19.63;;;5.70;82.80;;;;;;5094708;28;20032;-43
2022/02/16 09:18:10;;;;;;;37.58;20.27;;;5.70;82.80;;;;;;5094562;28;20027;-44
2022/02/16 09:20:36;;;;;;;30.08;18.50;;;5.70;83.10;;;;;;5094832;28;20025;-44
2022/02/16 09:23:02;;;;;;;28.00;17.08;;;5.70;83.00;;;;;;5095202;28;20392;-44
2022/02/16 09:25:27;;;;;;;28.58;16.67;;;5.80;83.10;;;;;;5095014;28;20323;-44
2022/02/16 09:27:53;;;;;;;28.23;16.88;;;5.80;82.90;;;;;;5094890;28;20024;-44
2022/02/16 09:30:19;;;;;;;28.67;16.58;;;5.80;82.90;;;;;;5094118;28;20039;-45
2022/02/16 09:32:45;;;;;;;24.27;15.60;;;5.80;82.90;;;;;;5094912;28;20024;-44
2022/02/16 09:35:10;;;;;;;39.33;19.92;;;5.90;83.10;;;;;;5094722;28;20082;-44
2022/02/16 09:37:36;;;;;;;28.30;16.42;;;5.90;82.70;;;;;;5111357;28;20024;-46
2022/02/16 09:40:03;;;;;;;33.13;15.60;;;5.90;82.70;;;;;;5115265;28;20063;-36
2022/02/16 09:42:31;;;;;;;25.40;14.43;;;5.90;82.70;;;;;;5115018;28;20476;-36
2022/02/16 09:45:01;;;;;;;25.70;14.15;;;5.90;82.70;;;;;;5115526;28;20064;-38
2022/02/16 09:47:29;;;;;;;36.58;17.92;;;5.90;82.70;;;;;;5115075;28;20058;-44
2022/02/16 09:49:55;;;;;;;23.85;12.27;;;5.90;82.80;;;;;;5114844;28;20036;-36
2022/02/16 09:52:21;;;;;;;60.95;26.35;;;5.90;82.80;;;;;;5115005;28;20218;-36
2022/02/16 09:54:47;;;;;;;28.08;15.73;;;5.90;82.90;;;;;;5114958;28;20328;-47
2022/02/16 09:57:13;;;;;;;91.13;35.88;;;5.90;83.00;;;;;;5113080;28;20028;-43
2022/02/16 09:59:38;;;;;;;27.23;16.63;;;5.90;82.90;;;;;;5114805;28;20042;-47
2022/02/16 10:02:08;;;;;;;27.75;13.70;;;5.90;83.10;;;;;;5114876;28;20027;-37
2022/02/16 10:04:36;;;;;;;25.38;13.48;;;6.00;82.90;;;;;;5112935;28;20354;-37
2022/02/16 10:07:21;;;;;;;24.15;13.70;;;6.00;82.60;;;;;;5116365;28;20382;-36
2022/02/16 10:09:47;;;;;;;23.42;13.50;;;6.00;82.50;;;;;;5117747;28;20036;-49
2022/02/16 10:12:12;;;;;;;23.13;12.65;;;6.00;82.10;;;;;;5118452;28;20031;-47
2022/02/16 10:14:39;;;;;;;29.02;13.65;;;6.00;82.10;;;;;;5118397;28;20056;-49
2022/02/16 10:17:27;;;;;;;29.45;13.93;;;6.00;82.30;;;;;;5118279;28;20062;-44
2022/02/16 10:20:01;;;;;;;32.63;17.67;;;6.00;82.40;;;;;;5118096;28;20031;-44
2022/02/16 10:22:42;;;;;;;27.10;14.20;;;6.00;82.70;;;;;;5117727;28;20380;-38
2022/02/16 10:25:12;;;;;;;28.90;14.35;;;6.00;82.60;;;;;;5118111;28;20055;-44
2022/02/16 10:27:39;;;;;;;20.83;12.48;;;6.00;82.70;;;;;;5118047;28;20411;-45
2022/02/16 10:30:16;;;;;;;22.95;12.27;;;6.00;82.70;;;;;;5118167;28;20066;-45
2022/02/16 10:32:42;;;;;;;31.83;12.75;;;6.00;82.70;;;;;;5118585;28;20028;-44
2022/02/16 10:35:08;;;;;;;22.70;12.20;;;6.00;82.70;;;;;;5118375;28;20039;-45
2022/02/16 10:37:39;;;;;;;24.38;13.40;;;6.00;82.80;;;;;;5118357;28;20019;-37
2022/02/16 10:40:13;;;;;;;23.98;12.63;;;6.00;82.60;;;;;;5118286;28;20107;-37
2022/02/16 10:43:00;;;;;;;27.33;15.57;;;6.00;82.60;;;;;;5117961;27;20107;-36
2022/02/16 10:45:28;;;;;;;118.32;40.25;;;6.00;82.40;;;;;;5117830;28;20044;-44
2022/02/16 10:48:02;;;;;;;162.40;62.28;;;6.00;82.60;;;;;;5118136;28;20019;-37
2022/02/16 10:50:44;;;;;;;27.85;13.30;;;6.00;82.70;;;;;;5116702;28;20414;-45
2022/02/16 10:53:10;;;;;;;32.13;16.52;;;6.10;82.50;;;;;;5117892;28;20043;-44
2022/02/16 10:55:41;;;;;;;25.20;13.40;;;6.10;82.40;;;;;;5117753;28;20383;-36
2022/02/16 10:58:09;;;;;;;153.75;61.35;;;6.10;82.70;;;;;;5117627;28;20064;-44
2022/02/16 11:00:37;;;;;;;31.15;16.52;;;6.10;82.70;;;;;;5118000;28;20315;-37
2022/02/16 11:03:05;;;;;;;32.00;16.75;;;6.20;82.40;;;;;;5117922;28;20019;-44
2022/02/16 11:05:32;;;;;;;26.98;15.80;;;6.20;82.20;;;;;;5117688;28;20035;-46
2022/02/16 11:07:59;;;;;;;38.00;18.38;;;6.30;82.00;;;;;;5117740;28;20316;-46
2022/02/16 11:10:28;;;;;;;33.58;14.05;;;6.30;81.60;;;;;;5117156;28;20032;-45
2022/02/16 11:12:54;;;;;;;26.00;14.73;;;6.30;81.40;;;;;;5117596;28;20074;-46
2022/02/16 11:15:22;;;;;;;27.30;15.63;;;6.40;81.30;;;;;;5117238;28;20123;-36
2022/02/16 11:17:48;;;;;;;31.15;16.73;;;6.40;81.40;;;;;;5117357;28;20104;-45
2022/02/16 11:20:25;;;;;;;28.38;14.07;;;6.40;81.40;;;;;;5115622;27;20106;-36
2022/02/16 11:23:00;;;;;;;30.55;13.45;;;6.40;81.20;;;;;;5117638;28;20028;-37
2022/02/16 11:25:27;;;;;;;26.98;13.90;;;6.40;81.20;;;;;;5116718;28;20327;-44
2022/02/16 11:27:52;;;;;;;29.48;15.35;;;6.40;81.30;;;;;;5117361;28;20412;-41
2022/02/16 11:30:33;;;;;;;29.80;15.90;;;6.40;81.20;;;;;;5117047;28;20077;-42
2022/02/16 11:33:22;;;;;;;27.85;13.25;;;6.50;81.70;;;;;;5117063;28;20035;-41
2022/02/16 11:35:47;;;;;;;23.33;13.50;;;6.50;80.70;;;;;;5117749;28;20118;-42
2022/02/16 11:38:15;;;;;;;35.78;16.38;;;6.50;80.70;;;;;;5117179;28;20223;-42
2022/02/16 11:40:55;;;;;;;27.92;14.55;;;6.60;80.60;;;;;;5117519;28;20050;-41
2022/02/16 11:43:43;;;;;;;26.77;14.15;;;6.50;80.80;;;;;;5116698;28;20023;-43
2022/02/16 11:46:08;;;;;;;21.30;11.73;;;6.50;80.90;;;;;;5117425;28;20301;-38
2022/02/16 11:48:50;;;;;;;27.95;13.57;;;6.50;81.00;;;;;;5116714;28;20031;-42
2022/02/16 11:51:25;;;;;;;25.00;12.90;;;6.60;81.20;;;;;;5116668;28;20031;-38
2022/02/16 11:53:54;;;;;;;31.67;17.25;;;6.60;81.30;;;;;;5116500;28;20030;-38
2022/02/16 11:56:23;;;;;;;27.73;14.07;;;6.70;81.40;;;;;;5117019;28;20028;-41
2022/02/16 11:59:19;;;;;;;34.47;15.57;;;6.60;81.60;;;;;;5116781;28;20034;-42
2022/02/16 12:02:07;;;;;;;26.45;14.57;;;6.70;81.50;;;;;;5116528;28;20323;-41
2022/02/16 12:04:46;;;;;;;28.77;14.73;;;6.80;81.40;;;;;;5117127;28;20442;-37
2022/02/16 12:07:29;;;;;;;26.20;13.75;;;6.80;81.50;;;;;;5116154;28;20587;-37
2022/02/16 12:10:13;;;;;;;28.85;14.30;;;6.90;81.20;;;;;;5116770;28;20043;-37
2022/02/16 12:12:44;;;;;;;25.75;14.18;;;7.00;81.00;;;;;;5116550;28;20114;-41
2022/02/16 12:15:10;;;;;;;31.60;15.10;;;7.00;80.90;;;;;;5116955;28;20047;-37
2022/02/16 12:17:37;;;;;;;25.35;14.55;;;7.00;80.80;;;;;;5116262;28;20019;-38
2022/02/16 12:20:05;;;;;;;30.85;17.13;;;7.00;80.60;;;;;;5116415;28;20036;-37
2022/02/16 12:22:32;;;;;;;33.05;16.83;;;7.00;80.60;;;;;;5115922;28;20145;-41
2022/02/16 12:25:14;;;;;;;25.45;14.82;;;7.00;80.60;;;;;;5116692;28;20035;-42
2022/02/16 12:27:41;;;;;;;30.50;16.88;;;7.00;80.80;;;;;;5116435;28;20039;-42
2022/02/16 12:30:08;;;;;;;26.85;15.80;;;7.00;81.00;;;;;;5115481;28;20438;-41
2022/02/16 12:32:34;;;;;;;30.40;16.77;;;7.00;81.10;;;;;;5116511;28;20024;-37
2022/02/16 12:35:04;;;;;;;36.95;16.45;;;7.00;81.20;;;;;;5116450;28;20408;-37